createdAt,value
2022-08-15T00:00:29.675Z,6.60
2022-08-15T00:01:04.775Z,6.60
2022-08-15T00:01:44.716Z,7.60
2022-08-15T00:02:34.539Z,6.50
2022-08-15T00:03:00.522Z,6.80
2022-08-15T00:04:01.206Z,6.70
2022-08-15T00:04:33.341Z,6.10
2022-08-15T00:04:55.568Z,6.60
2022-08-15T00:05:31.092Z,6.20
2022-08-15T00:06:40.035Z,6.50
2022-08-15T00:06:50.431Z,6.60
2022-08-15T00:07:34.496Z,6.40
2022-08-15T00:08:06.522Z,6.50
2022-08-15T00:08:51.104Z,6.30
2022-08-15T00:09:24.032Z,6.80
2022-08-15T00:10:00.401Z,6.60
2022-08-15T00:11:00.621Z,6.80
2022-08-15T00:11:23.550Z,6.80
2022-08-15T00:12:04.776Z,6.30
2022-08-15T00:12:39.601Z,6.40
2022-08-15T00:13:16.072Z,6.30
2022-08-15T00:13:59.730Z,6.50
2022-08-15T00:14:32.401Z,6.70
2022-08-15T00:15:09.104Z,6.70
2022-08-15T00:15:44.209Z,6.20
2022-08-15T00:16:20.521Z,6.90
2022-08-15T00:16:55.371Z,6.60
2022-08-15T00:17:48.243Z,6.90
2022-08-15T00:18:11.353Z,6.80
2022-08-15T00:18:47.725Z,6.60
2022-08-15T00:19:24.479Z,6.80
2022-08-15T00:19:59.974Z,6.60
2022-08-15T00:20:34.916Z,6.10
2022-08-15T00:21:10.441Z,6.60
2022-08-15T00:21:49.017Z,6.60
2022-08-15T00:22:34.351Z,6.80
2022-08-15T00:23:05.826Z,6.80
2022-08-15T00:23:41.827Z,6.60
2022-08-15T00:24:20.017Z,7.00
2022-08-15T00:24:55.727Z,7.20
2022-08-15T00:25:35.785Z,6.70
2022-08-15T00:26:28.405Z,7.10
2022-08-15T00:26:56.173Z,6.30
2022-08-15T00:27:29.798Z,6.40
2022-08-15T00:28:07.028Z,6.60
2022-08-15T00:28:47.298Z,6.20
2022-08-15T00:29:37.559Z,6.50
2022-08-15T00:30:06.518Z,6.80
2022-08-15T00:30:57.769Z,6.80
2022-08-15T00:31:20.878Z,7.30
2022-08-15T00:32:01.451Z,7.00
2022-08-15T00:33:03.467Z,6.70
2022-08-15T00:33:29.682Z,7.00
2022-08-15T00:34:01.789Z,6.80
2022-08-15T00:34:38.164Z,6.80
2022-08-15T00:35:14.750Z,6.90
2022-08-15T00:36:02.918Z,6.80
2022-08-15T00:36:52.756Z,6.40
2022-08-15T00:37:11.602Z,6.90
2022-08-15T00:38:12.628Z,6.80
2022-08-15T00:38:38.722Z,7.00
2022-08-15T00:39:05.653Z,6.40
2022-08-15T00:39:45.325Z,6.80
2022-08-15T00:40:24.886Z,7.10
2022-08-15T00:41:04.476Z,6.90
2022-08-15T00:41:39.995Z,7.10
2022-08-15T00:42:17.280Z,6.60
2022-08-15T00:42:52.017Z,6.80
2022-08-15T00:43:30.705Z,7.20
2022-08-15T00:44:07.130Z,7.10
2022-08-15T00:44:52.484Z,7.10
2022-08-15T00:45:22.115Z,7.50
2022-08-15T00:45:56.872Z,7.00
2022-08-15T00:46:31.596Z,6.90
2022-08-15T00:47:06.347Z,7.20
2022-08-15T00:47:41.959Z,6.90
2022-08-15T00:48:18.377Z,7.10
2022-08-15T00:48:53.117Z,6.90
2022-08-15T00:49:27.837Z,7.20
2022-08-15T00:50:04.404Z,7.00
2022-08-15T00:50:42.937Z,7.20
2022-08-15T00:51:18.559Z,7.30
2022-08-15T00:51:54.722Z,6.60
2022-08-15T00:52:31.599Z,6.30
2022-08-15T00:53:09.601Z,6.90
2022-08-15T00:53:46.390Z,7.20
2022-08-15T00:54:37.395Z,6.90
2022-08-15T00:55:04.162Z,6.60
2022-08-15T00:55:38.893Z,6.80
2022-08-15T00:56:30.843Z,6.80
2022-08-15T00:56:53.871Z,6.90
2022-08-15T00:57:59.865Z,7.10
2022-08-15T00:58:34.410Z,6.40
2022-08-15T00:58:55.788Z,6.70
2022-08-15T00:59:31.806Z,7.10
2022-08-15T01:00:08.582Z,7.10
2022-08-15T01:00:46.256Z,7.00
2022-08-15T01:01:21.427Z,7.10
2022-08-15T01:02:01.341Z,7.00
2022-08-15T01:02:37.204Z,6.50
2022-08-15T01:03:14.495Z,7.00
2022-08-15T01:03:56.208Z,6.80
2022-08-15T01:04:35.087Z,6.90
2022-08-15T01:05:14.779Z,7.60
2022-08-15T01:05:52.030Z,6.50
2022-08-15T01:06:28.196Z,6.30
2022-08-15T01:07:08.138Z,6.60
2022-08-15T01:07:43.006Z,6.90
2022-08-15T01:08:19.283Z,7.30
2022-08-15T01:08:57.387Z,6.80
2022-08-15T01:09:32.127Z,7.00
2022-08-15T01:10:07.051Z,7.10
2022-08-15T01:10:54.500Z,6.60
2022-08-15T01:11:33.821Z,6.90
2022-08-15T01:12:07.888Z,6.50
2022-08-15T01:12:42.703Z,6.50
2022-08-15T01:13:18.819Z,6.60
2022-08-15T01:14:05.190Z,6.50
2022-08-15T01:14:55.391Z,6.80
2022-08-15T01:15:17.739Z,7.50
2022-08-15T01:15:52.543Z,7.30
2022-08-15T01:16:33.855Z,6.80
2022-08-15T01:17:10.322Z,7.80
2022-08-15T01:17:53.822Z,6.70
2022-08-15T01:18:34.256Z,6.90
2022-08-15T01:19:10.744Z,6.70
2022-08-15T01:19:47.981Z,7.00
2022-08-15T01:20:24.583Z,6.50
2022-08-15T01:20:59.542Z,6.90
2022-08-15T01:21:34.273Z,7.30
2022-08-15T01:22:09.252Z,7.00
2022-08-15T01:22:47.470Z,7.20
2022-08-15T01:23:22.814Z,7.10
2022-08-15T01:23:57.545Z,6.90
2022-08-15T01:25:15.852Z,7.10
2022-08-15T01:25:25.953Z,6.90
2022-08-15T01:26:41.358Z,6.90
2022-08-15T01:26:41.754Z,7.00
2022-08-15T01:27:10.710Z,7.00
2022-08-15T01:27:46.227Z,6.60
2022-08-15T01:28:31.556Z,6.90
2022-08-15T01:29:05.366Z,6.60
2022-08-15T01:29:40.095Z,7.30
2022-08-15T01:30:39.519Z,7.00
2022-08-15T01:31:03.098Z,6.80
2022-08-15T01:31:34.379Z,7.10
2022-08-15T01:32:09.107Z,6.90
2022-08-15T01:32:43.842Z,7.20
2022-08-15T01:34:56.529Z,6.40
2022-08-15T01:34:56.529Z,6.90
2022-08-15T06:47:34.904Z,6.90
2022-08-15T06:48:54.925Z,7.90
2022-08-15T06:49:05.395Z,7.80
2022-08-15T06:49:37.681Z,7.50
2022-08-15T06:50:16.825Z,7.40
2022-08-15T06:50:54.425Z,7.40
2022-08-15T06:51:45.567Z,7.90
2022-08-15T06:52:18.192Z,7.30
2022-08-15T06:52:54.950Z,7.50
2022-08-15T06:53:31.080Z,7.30
2022-08-15T06:54:34.311Z,8.10
2022-08-15T06:54:50.577Z,7.20
2022-08-15T06:55:25.462Z,7.20
2022-08-15T06:56:00.197Z,7.70
2022-08-15T06:56:36.208Z,7.60
2022-08-15T06:57:19.569Z,7.70
2022-08-15T06:58:02.158Z,8.00
2022-08-15T06:58:55.021Z,7.40
2022-08-15T06:59:36.039Z,7.90
2022-08-15T07:00:34.585Z,7.40
2022-08-15T07:00:51.553Z,7.90
2022-08-15T07:02:15.612Z,8.60
2022-08-15T07:02:16.387Z,8.30
2022-08-15T07:02:52.332Z,8.40
2022-08-15T07:03:31.557Z,7.60
2022-08-15T07:04:08.131Z,7.50
2022-08-15T07:04:49.718Z,8.10
2022-08-15T07:05:27.657Z,8.20
2022-08-15T07:06:05.086Z,8.60
2022-08-15T07:06:46.594Z,8.00
2022-08-15T07:07:22.793Z,7.90
2022-08-15T07:08:05.004Z,7.90
2022-08-15T07:08:44.123Z,8.20
2022-08-15T07:09:23.242Z,7.90
2022-08-15T07:10:04.502Z,8.50
2022-08-15T07:10:40.820Z,7.70
2022-08-15T07:11:16.934Z,8.10
2022-08-15T07:11:57.013Z,8.90
2022-08-15T07:12:35.196Z,8.30
2022-08-15T07:13:13.854Z,8.00
2022-08-15T07:13:58.285Z,8.40
2022-08-15T07:14:43.978Z,7.90
2022-08-15T07:15:21.386Z,8.30
2022-08-15T07:15:58.881Z,8.40
2022-08-15T07:16:34.837Z,7.90
2022-08-15T07:17:11.195Z,8.10
2022-08-15T07:17:55.226Z,8.30
2022-08-15T07:18:30.635Z,8.70
2022-08-15T07:19:12.436Z,8.90
2022-08-15T07:19:55.484Z,8.50
2022-08-15T07:20:38.314Z,8.50
2022-08-15T07:21:12.941Z,8.60
2022-08-15T07:21:53.540Z,8.90
2022-08-15T07:22:35.159Z,8.90
2022-08-15T07:23:13.112Z,8.40
2022-08-15T07:23:48.920Z,8.80
2022-08-15T07:24:34.873Z,8.40
2022-08-15T07:25:08.917Z,8.20
2022-08-15T07:25:45.534Z,8.80
2022-08-15T07:26:21.361Z,8.10
2022-08-15T07:27:00.160Z,8.00
2022-08-15T07:27:36.807Z,8.50
2022-08-15T07:28:19.149Z,8.50
2022-08-15T07:28:55.281Z,9.30
2022-08-15T07:29:31.898Z,9.60
2022-08-15T07:30:12.295Z,9.00
2022-08-15T07:30:55.252Z,9.50
2022-08-15T07:31:34.131Z,9.40
2022-08-15T07:32:19.061Z,9.80
2022-08-15T07:32:54.934Z,9.20
2022-08-15T07:33:31.378Z,9.50
2022-08-15T07:34:20.017Z,9.30
2022-08-15T07:34:52.985Z,8.60
2022-08-15T07:35:34.050Z,9.90
2022-08-15T07:36:10.850Z,9.00
2022-08-15T07:36:48.506Z,9.00
2022-08-15T07:37:26.500Z,8.90
2022-08-15T07:38:25.433Z,9.80
2022-08-15T07:38:49.876Z,9.00
2022-08-15T07:39:33.139Z,9.90
2022-08-15T07:40:09.643Z,9.60
2022-08-15T07:40:56.622Z,10.20
2022-08-15T07:41:29.388Z,9.40
2022-08-15T07:42:06.356Z,9.90
2022-08-15T07:43:10.565Z,10.00
2022-08-15T07:43:33.954Z,10.40
2022-08-15T07:44:21.529Z,9.30
2022-08-15T07:44:53.439Z,10.40
2022-08-15T07:45:29.582Z,10.20
2022-08-15T07:46:22.414Z,9.80
2022-08-15T07:46:55.973Z,9.90
2022-08-15T07:47:28.156Z,10.10
2022-08-15T07:48:09.620Z,9.90
2022-08-15T07:48:47.399Z,9.50
2022-08-15T07:49:23.822Z,9.50
2022-08-15T07:50:00.897Z,9.50
2022-08-15T07:50:37.301Z,10.40
2022-08-15T07:51:15.532Z,9.80
2022-08-15T07:51:53.653Z,9.80
2022-08-15T07:52:47.623Z,10.00
2022-08-15T07:53:15.740Z,8.80
2022-08-15T07:53:55.697Z,9.80
2022-08-15T07:55:33.790Z,9.40
2022-08-15T07:56:47.155Z,9.40
2022-08-15T07:57:18.881Z,10.40
2022-08-15T07:57:55.687Z,10.10
2022-08-15T07:58:33.026Z,8.90
2022-08-15T07:59:08.867Z,9.20
2022-08-15T08:00:45.566Z,11.10
2022-08-15T08:01:47.678Z,10.70
2022-08-15T08:02:29.561Z,10.10
2022-08-15T08:03:04.859Z,9.90
2022-08-15T08:03:41.773Z,10.20
2022-08-15T08:04:23.052Z,9.80
2022-08-15T08:05:02.206Z,10.00
2022-08-15T08:05:47.737Z,10.00
2022-08-15T08:06:33.946Z,10.00
2022-08-15T08:07:03.459Z,9.60
2022-08-15T08:07:41.620Z,9.60
2022-08-15T08:08:43.975Z,9.70
2022-08-15T08:09:03.032Z,10.30
2022-08-15T08:09:41.262Z,11.30
2022-08-15T08:10:24.331Z,9.80
2022-08-15T08:10:58.855Z,9.60
2022-08-15T08:11:34.712Z,9.80
2022-08-15T08:12:24.137Z,9.90
2022-08-15T08:12:56.819Z,9.90
2022-08-15T08:13:38.223Z,9.60
2022-08-15T08:14:39.097Z,10.00
2022-08-15T08:14:51.456Z,10.20
2022-08-15T08:15:42.890Z,10.80
2022-08-15T08:16:09.676Z,9.90
2022-08-15T08:16:45.735Z,10.40
2022-08-15T08:17:23.789Z,10.10
2022-08-15T08:18:02.457Z,10.20
2022-08-15T08:18:38.741Z,10.10
2022-08-15T08:19:15.931Z,10.20
2022-08-15T08:19:53.524Z,10.40
2022-08-15T08:20:30.976Z,10.50
2022-08-15T08:21:09.807Z,10.30
2022-08-15T08:21:47.316Z,9.70
2022-08-15T08:22:26.237Z,9.60
2022-08-15T08:23:06.770Z,9.80
2022-08-15T08:23:45.316Z,9.70
2022-08-15T08:24:20.367Z,11.10
2022-08-15T08:25:00.912Z,10.30
2022-08-15T08:26:06.925Z,10.50
2022-08-15T08:26:22.558Z,10.40
2022-08-15T08:27:02.838Z,10.00
2022-08-15T08:27:47.589Z,10.30
2022-08-15T08:28:23.278Z,10.70
2022-08-15T08:29:01.009Z,10.70
2022-08-15T08:29:39.841Z,10.20
2022-08-15T08:30:43.693Z,10.80
2022-08-15T08:31:18.767Z,12.00
2022-08-15T08:31:57.422Z,10.60
2022-08-15T08:32:35.176Z,11.50
2022-08-15T08:33:13.211Z,10.90
2022-08-15T08:33:55.835Z,10.90
2022-08-15T08:34:48.805Z,11.00
2022-08-15T08:35:11.732Z,10.70
2022-08-15T08:35:52.704Z,10.90
2022-08-15T08:36:36.578Z,11.10
2022-08-15T08:38:58.957Z,10.30
2022-08-15T08:38:58.957Z,10.60
2022-08-15T13:30:36.331Z,4.10
2022-08-15T13:31:06.554Z,4.80
2022-08-15T13:31:41.293Z,5.00
2022-08-15T13:32:17.913Z,4.40
2022-08-15T13:32:56.804Z,4.50
2022-08-15T13:33:31.548Z,4.50
2022-08-15T13:34:06.306Z,4.00
2022-08-15T13:34:45.699Z,4.20
2022-08-15T13:35:28.928Z,4.30
2022-08-15T13:36:02.275Z,4.50
2022-08-15T13:36:40.725Z,4.10
2022-08-15T13:37:18.338Z,4.20
2022-08-15T13:38:03.547Z,4.70
2022-08-15T13:38:37.536Z,4.10
2022-08-15T13:39:28.837Z,4.50
2022-08-15T13:39:56.555Z,4.30
2022-08-15T13:40:32.480Z,4.20
2022-08-15T13:41:07.532Z,4.70
2022-08-15T13:41:48.654Z,4.40
2022-08-15T13:42:36.856Z,4.40
2022-08-15T13:43:11.817Z,4.70
2022-08-15T13:43:56.627Z,4.30
2022-08-15T13:44:31.144Z,4.30
2022-08-15T13:45:07.259Z,4.30
2022-08-15T13:45:56.335Z,4.40
2022-08-15T13:46:29.637Z,4.40
2022-08-15T13:47:09.802Z,3.80
2022-08-15T13:47:47.611Z,4.10
2022-08-15T13:48:25.227Z,4.40
2022-08-15T13:49:02.466Z,3.90
2022-08-15T13:49:37.422Z,4.10
2022-08-15T13:50:18.175Z,4.60
2022-08-15T13:50:52.032Z,4.00
2022-08-15T13:52:23.789Z,4.70
2022-08-15T13:52:45.147Z,4.90
2022-08-15T13:52:50.879Z,4.20
2022-08-15T13:53:45.876Z,4.20
2022-08-15T13:54:31.606Z,4.10
2022-08-15T13:54:50.098Z,3.70
2022-08-15T13:55:29.765Z,3.60
2022-08-15T13:56:30.844Z,4.20
2022-08-15T13:56:44.215Z,4.00
2022-08-15T13:57:28.537Z,4.00
2022-08-15T13:58:05.972Z,4.00
2022-08-15T13:58:43.413Z,5.00
2022-08-15T13:59:18.145Z,4.20
2022-08-15T13:59:56.980Z,4.10
2022-08-15T14:00:55.390Z,3.90
2022-08-15T14:01:13.723Z,4.30
2022-08-15T14:01:48.477Z,4.60
2022-08-15T14:02:32.928Z,4.10
2022-08-15T14:03:06.960Z,4.10
2022-08-15T14:03:42.962Z,4.30
2022-08-15T14:04:20.446Z,4.60
2022-08-15T14:04:58.808Z,4.20
2022-08-15T14:05:34.000Z,4.20
2022-08-15T14:06:08.731Z,4.00
2022-08-15T14:06:55.576Z,4.00
2022-08-15T14:07:24.810Z,3.90
2022-08-15T14:08:24.320Z,3.80
2022-08-15T14:09:14.307Z,4.00
2022-08-15T14:10:02.458Z,4.30
2022-08-15T14:10:02.491Z,3.90
2022-08-15T14:11:00.451Z,3.80
2022-08-15T14:11:32.000Z,4.10
2022-08-15T14:11:58.502Z,4.10
2022-08-15T14:12:33.234Z,4.50
2022-08-15T14:13:13.587Z,4.20
2022-08-15T14:13:47.582Z,4.50
2022-08-15T14:14:34.836Z,4.20
2022-08-15T14:15:07.080Z,4.10
2022-08-15T14:16:08.316Z,3.80
2022-08-15T14:16:58.376Z,4.20
2022-08-15T14:17:04.710Z,4.10
2022-08-15T14:18:49.609Z,4.00
2022-08-15T14:18:58.672Z,3.90
2022-08-15T14:20:01.286Z,4.20
2022-08-15T14:20:26.972Z,4.50
2022-08-15T14:20:55.487Z,4.30
2022-08-15T14:21:30.306Z,4.20
2022-08-15T14:22:06.053Z,4.20
2022-08-15T14:22:45.997Z,4.00
2022-08-15T14:23:22.463Z,4.10
2022-08-15T14:23:59.914Z,4.30
2022-08-15T14:25:00.178Z,4.00
2022-08-15T14:27:10.924Z,4.00
2022-08-15T14:27:12.800Z,4.10
2022-08-15T14:27:13.468Z,4.40
2022-08-15T14:27:39.966Z,4.50
2022-08-15T14:27:54.856Z,3.90
2022-08-15T14:28:36.733Z,4.00
2022-08-15T14:29:10.213Z,3.90
2022-08-15T14:29:48.369Z,3.50
2022-08-15T14:30:25.321Z,3.80
2022-08-15T14:31:44.563Z,3.80
2022-08-15T14:33:00.743Z,3.80
2022-08-15T14:34:36.901Z,3.80
2022-08-15T14:34:57.949Z,3.60
2022-08-15T14:35:42.608Z,4.20
2022-08-15T14:36:29.181Z,4.00
2022-08-15T14:36:53.564Z,4.00
2022-08-15T14:37:47.269Z,4.00
2022-08-15T14:38:12.418Z,4.00
2022-08-15T14:38:47.614Z,4.40
2022-08-15T14:39:23.188Z,3.90
2022-08-15T14:39:58.975Z,4.20
2022-08-15T14:40:33.812Z,4.00
2022-08-15T14:41:09.896Z,3.90
2022-08-15T14:41:45.726Z,4.20
2022-08-15T14:42:41.248Z,4.80
2022-08-15T14:43:05.324Z,3.80
2022-08-15T14:43:42.073Z,4.30
2022-08-15T14:44:46.629Z,4.20
2022-08-15T14:45:01.959Z,4.10
2022-08-15T14:46:34.503Z,4.30
2022-08-15T14:46:34.505Z,4.50
2022-08-15T14:46:56.873Z,4.10
2022-08-15T14:47:35.144Z,4.00
2022-08-15T14:48:24.179Z,3.80
2022-08-15T14:48:51.192Z,4.10
2022-08-15T14:50:52.565Z,4.10
2022-08-15T14:50:53.597Z,3.90
2022-08-15T14:50:54.098Z,4.30
2022-08-15T14:52:03.589Z,4.40
2022-08-15T14:52:24.320Z,4.40
2022-08-15T14:52:46.462Z,3.90
2022-08-15T14:53:26.082Z,4.10
2022-08-15T14:54:05.133Z,3.60
2022-08-15T14:54:45.910Z,3.80
2022-08-15T14:55:20.924Z,4.30
2022-08-15T14:55:58.497Z,4.30
2022-08-15T14:56:33.520Z,4.10
2022-08-15T14:57:08.515Z,3.50
2022-08-15T14:57:59.269Z,4.10
2022-08-15T14:58:34.773Z,3.70
2022-08-15T14:59:02.875Z,4.30
2022-08-15T14:59:56.326Z,4.10
2022-08-15T15:00:20.987Z,4.00
2022-08-15T15:00:57.813Z,4.00
2022-08-15T15:01:36.427Z,4.00
2022-08-15T15:02:11.199Z,4.20
2022-08-15T15:02:46.016Z,3.90
2022-08-15T15:03:21.372Z,4.40
2022-08-15T15:04:06.238Z,4.20
2022-08-15T15:04:40.555Z,3.90
2022-08-15T15:05:16.416Z,4.00
2022-08-15T15:06:06.569Z,4.00
2022-08-15T15:06:31.733Z,4.30
2022-08-15T15:07:07.273Z,3.90
2022-08-15T15:07:56.367Z,3.80
2022-08-15T15:08:27.569Z,4.20
2022-08-15T15:09:05.913Z,3.60
2022-08-15T15:09:41.588Z,3.80
2022-08-15T15:10:25.041Z,4.30
2022-08-15T15:10:57.880Z,3.80
2022-08-15T15:11:33.466Z,4.30
2022-08-15T15:12:10.671Z,3.80
2022-08-15T15:12:45.605Z,4.10
2022-08-15T15:13:20.552Z,3.70
2022-08-15T15:14:00.155Z,3.80
2022-08-15T15:14:34.903Z,3.80
2022-08-15T15:15:11.493Z,4.30
2022-08-15T15:16:13.781Z,3.70
2022-08-15T15:16:41.214Z,3.60
2022-08-15T15:17:08.666Z,3.50
2022-08-15T15:17:44.805Z,3.80
2022-08-15T15:18:39.187Z,3.70
2022-08-15T15:19:00.812Z,4.00
2022-08-15T15:19:39.205Z,4.00
2022-08-15T15:20:18.440Z,3.30
2022-08-15T15:20:55.213Z,3.70
2022-08-15T15:21:31.879Z,3.70
2022-08-15T15:22:08.546Z,3.50
2022-08-15T15:22:46.840Z,4.10
2022-08-15T15:23:22.999Z,3.80
2022-08-15T15:23:58.457Z,3.70
2022-08-15T15:24:39.565Z,4.10
2022-08-15T15:25:15.062Z,3.50
2022-08-15T15:25:52.037Z,3.50
2022-08-15T15:26:36.507Z,3.80
2022-08-15T15:27:06.406Z,3.70
2022-08-15T15:27:59.410Z,3.80
2022-08-15T15:28:40.861Z,3.50
2022-08-15T15:29:02.438Z,3.60
2022-08-15T15:29:46.352Z,3.80
2022-08-15T15:30:19.234Z,3.60
2022-08-15T15:30:55.093Z,3.90
2022-08-15T15:31:29.839Z,3.30
2022-08-15T15:32:04.570Z,3.30
2022-08-15T15:32:44.215Z,4.00
2022-08-15T15:33:19.561Z,3.40
2022-08-15T15:33:54.303Z,3.40
2022-08-15T15:34:30.466Z,3.80
2022-08-15T15:35:07.570Z,3.60
2022-08-15T15:35:42.456Z,3.70
2022-08-15T15:36:27.219Z,3.40
2022-08-15T15:37:03.302Z,2.90
2022-08-15T15:37:37.885Z,3.60
2022-08-15T15:38:37.703Z,3.70
2022-08-15T15:38:58.851Z,3.70
2022-08-15T15:39:46.491Z,3.40
2022-08-15T15:40:20.818Z,3.20
2022-08-15T15:40:52.774Z,3.50
2022-08-15T15:41:27.514Z,3.70
2022-08-15T15:42:03.275Z,3.40
2022-08-15T15:42:42.884Z,3.50
2022-08-15T15:43:28.131Z,3.60
2022-08-15T15:44:03.927Z,3.60
2022-08-15T15:44:43.535Z,3.30
2022-08-15T15:45:19.237Z,3.40
2022-08-15T15:45:53.995Z,3.40
2022-08-15T15:46:28.741Z,3.40
2022-08-15T15:47:03.473Z,3.50
2022-08-15T15:47:40.183Z,3.70
2022-08-15T15:48:27.533Z,3.40
2022-08-15T15:49:01.403Z,3.70
2022-08-15T15:49:40.568Z,3.50
2022-08-15T15:50:25.918Z,3.70
2022-08-15T15:50:59.168Z,3.70
2022-08-15T15:51:34.370Z,3.60
2022-08-15T15:52:09.108Z,3.80
2022-08-15T15:52:54.426Z,3.80
2022-08-15T15:53:27.258Z,3.40
2022-08-15T15:54:02.012Z,3.70
2022-08-15T15:54:53.737Z,3.60
2022-08-15T15:55:21.242Z,3.50
2022-08-15T15:55:56.600Z,3.20
2022-08-15T15:56:37.629Z,3.90
2022-08-15T15:57:12.933Z,3.40
2022-08-15T15:58:03.365Z,3.20
2022-08-15T15:58:27.283Z,3.70
2022-08-15T15:59:07.729Z,3.40
2022-08-15T15:59:59.358Z,3.50
2022-08-15T16:00:28.181Z,3.90
2022-08-15T16:01:32.146Z,3.40
2022-08-15T16:02:36.730Z,3.40
2022-08-15T16:02:43.345Z,3.60
2022-08-15T16:03:06.550Z,3.50
2022-08-15T16:03:41.340Z,3.20
2022-08-15T16:04:21.053Z,3.30
2022-08-15T16:04:56.107Z,3.90
2022-08-15T16:06:04.328Z,3.60
2022-08-15T16:07:01.176Z,3.60
2022-08-15T16:07:02.231Z,3.40
2022-08-15T16:07:55.167Z,3.90
2022-08-15T16:08:32.940Z,3.60
2022-08-15T16:08:52.337Z,3.60
2022-08-15T16:09:27.900Z,3.50
2022-08-15T16:10:05.412Z,3.60
2022-08-15T16:10:41.219Z,3.50
2022-08-15T16:11:20.460Z,3.20
2022-08-15T16:12:58.778Z,3.40
2022-08-15T16:12:58.852Z,3.20
2022-08-15T16:13:17.480Z,3.80
2022-08-15T16:13:52.201Z,3.40
2022-08-15T16:14:28.641Z,3.30
2022-08-15T16:15:03.381Z,2.90
2022-08-15T16:15:43.515Z,3.60
2022-08-15T16:16:19.403Z,3.20
2022-08-15T16:16:58.200Z,3.10
2022-08-15T16:17:35.475Z,3.50
2022-08-15T16:18:24.973Z,3.40
2022-08-15T16:18:50.161Z,3.50
2022-08-15T16:19:26.392Z,3.30
2022-08-15T16:20:04.867Z,3.40
2022-08-15T16:20:44.906Z,3.50
2022-08-15T16:21:19.635Z,3.00
2022-08-15T16:21:59.597Z,3.10
2022-08-15T16:22:34.951Z,3.50
2022-08-15T16:23:09.698Z,3.20
2022-08-15T16:23:47.781Z,3.00
2022-08-15T16:24:23.458Z,3.40
2022-08-15T16:24:58.186Z,3.10
2022-08-15T16:25:41.615Z,3.40
2022-08-15T16:26:17.411Z,3.50
2022-08-15T16:26:54.002Z,3.40
2022-08-15T16:27:29.027Z,3.20
2022-08-15T16:28:03.824Z,3.30
2022-08-15T16:28:38.561Z,3.80
2022-08-15T16:29:13.298Z,3.20
2022-08-15T16:29:54.537Z,3.50
2022-08-15T16:30:30.435Z,3.00
2022-08-15T16:31:13.290Z,3.60
2022-08-15T16:31:47.138Z,3.10
2022-08-15T16:32:32.013Z,3.20
2022-08-15T16:33:07.499Z,3.60
2022-08-15T16:33:43.001Z,3.10
2022-08-15T16:34:28.094Z,3.40
2022-08-15T16:34:59.960Z,3.50
2022-08-15T16:35:35.501Z,3.30
2022-08-15T16:36:23.582Z,3.20
2022-08-15T16:36:52.732Z,3.20
2022-08-15T16:37:27.791Z,3.30
2022-08-15T16:38:34.375Z,3.50
2022-08-15T16:39:06.196Z,3.30
2022-08-15T16:39:28.804Z,3.70
2022-08-15T16:40:24.571Z,2.90
2022-08-15T16:40:59.840Z,3.20
2022-08-15T16:41:24.650Z,3.70
2022-08-15T16:42:02.644Z,3.20
2022-08-15T16:42:41.256Z,3.10
2022-08-15T16:43:17.963Z,3.30
2022-08-15T16:43:58.325Z,3.50
2022-08-15T16:44:35.184Z,3.10
2022-08-15T16:45:12.167Z,3.10
2022-08-15T16:45:54.547Z,3.70
2022-08-15T16:46:30.229Z,3.30
2022-08-15T16:47:04.956Z,3.40
2022-08-15T16:47:42.889Z,3.30
2022-08-15T16:48:18.590Z,3.40
2022-08-15T16:48:58.467Z,2.90
2022-08-15T16:49:33.118Z,3.40
2022-08-15T16:50:12.720Z,3.80
2022-08-15T16:50:48.079Z,3.20
2022-08-15T16:51:22.879Z,3.40
2022-08-15T16:51:58.942Z,3.70
2022-08-15T16:52:33.888Z,3.30
2022-08-15T16:53:08.710Z,3.40
2022-08-15T16:53:56.640Z,3.60
2022-08-15T16:54:32.983Z,3.30
2022-08-15T16:55:03.811Z,3.50
2022-08-15T16:55:38.531Z,3.30
2022-08-15T16:56:30.135Z,3.10
2022-08-15T16:56:55.184Z,3.30
2022-08-15T16:57:31.562Z,3.80
2022-08-15T16:58:35.502Z,3.40
2022-08-15T16:58:48.923Z,3.10
2022-08-15T16:59:23.854Z,3.70
2022-08-15T17:00:09.606Z,3.40
2022-08-15T17:00:46.658Z,3.60
2022-08-15T17:01:21.611Z,3.40
2022-08-15T17:01:57.376Z,3.70
2022-08-15T17:03:05.282Z,3.50
2022-08-15T17:03:15.862Z,3.40
2022-08-15T17:03:50.714Z,3.50
2022-08-15T17:04:31.275Z,3.70
2022-08-15T17:05:06.605Z,3.80
2022-08-15T17:05:41.540Z,3.80
2022-08-15T17:06:16.276Z,3.50
2022-08-15T17:06:51.007Z,3.60
2022-08-15T17:07:26.432Z,3.40
2022-08-15T17:08:05.567Z,3.60
2022-08-15T17:08:46.156Z,3.20
2022-08-15T17:09:21.548Z,3.50
2022-08-15T17:09:56.998Z,3.60
2022-08-15T17:10:32.701Z,3.30
2022-08-15T17:11:09.345Z,3.50
2022-08-15T17:11:44.464Z,3.40
2022-08-15T17:12:24.102Z,3.60
2022-08-15T17:12:58.791Z,3.80
2022-08-15T17:13:34.769Z,3.70
2022-08-15T17:14:48.205Z,3.50
2022-08-15T17:14:55.458Z,3.70
2022-08-15T17:15:32.502Z,3.40
2022-08-15T17:16:07.650Z,3.50
2022-08-15T17:16:43.031Z,3.70
2022-08-15T17:17:22.378Z,3.60
2022-08-15T17:17:57.131Z,3.30
2022-08-15T17:18:35.034Z,3.20
2022-08-15T17:19:09.750Z,3.50
2022-08-15T17:19:44.562Z,3.90
2022-08-15T17:20:21.756Z,3.50
2022-08-15T17:20:58.912Z,3.50
2022-08-15T17:21:41.972Z,3.30
2022-08-15T17:22:17.251Z,3.50
2022-08-15T17:22:53.033Z,3.50
2022-08-15T17:23:28.084Z,3.60
2022-08-15T17:24:25.137Z,3.70
2022-08-15T17:24:59.256Z,3.70
2022-08-15T17:25:30.263Z,3.80
2022-08-15T17:26:49.538Z,3.80
2022-08-15T17:27:03.988Z,3.40
2022-08-15T17:27:35.942Z,3.80
2022-08-15T17:28:35.029Z,3.70
2022-08-15T17:28:46.553Z,4.10
2022-08-15T17:29:27.941Z,3.50
2022-08-15T17:30:01.336Z,3.90
2022-08-15T17:30:56.603Z,3.50
2022-08-15T17:31:15.867Z,3.40
2022-08-15T17:31:53.599Z,4.20
2022-08-15T17:32:30.036Z,3.70
2022-08-15T17:33:05.259Z,3.80
2022-08-15T17:33:43.126Z,3.60
2022-08-15T17:34:37.132Z,3.20
2022-08-15T17:34:59.229Z,3.80
2022-08-15T17:35:34.241Z,3.30
2022-08-15T17:36:12.246Z,3.70
2022-08-15T17:36:47.372Z,3.70
2022-08-15T17:37:22.237Z,3.70
2022-08-15T17:37:57.121Z,3.30
2022-08-15T17:38:33.821Z,3.40
2022-08-15T17:39:09.173Z,3.70
2022-08-15T17:39:53.278Z,3.90
2022-08-15T17:40:26.490Z,3.50
2022-08-15T17:41:02.376Z,4.00
2022-08-15T17:41:37.111Z,4.00
2022-08-15T17:42:16.083Z,3.40
2022-08-15T17:42:54.273Z,3.30
2022-08-15T17:43:29.921Z,3.40
2022-08-15T17:44:16.260Z,3.90
2022-08-15T17:44:50.670Z,3.50
2022-08-15T17:45:43.770Z,3.50
2022-08-15T17:46:04.437Z,3.30
2022-08-15T17:46:41.523Z,3.70
2022-08-15T17:47:16.506Z,3.50
2022-08-15T17:47:53.636Z,3.60
2022-08-15T17:48:30.211Z,3.60
2022-08-15T17:49:05.861Z,3.50
2022-08-15T17:49:53.484Z,3.70
2022-08-15T17:50:47.214Z,3.40
2022-08-15T17:51:10.988Z,3.70
2022-08-15T17:51:43.596Z,3.70
2022-08-15T17:52:18.761Z,3.70
2022-08-15T17:52:58.366Z,3.40
2022-08-15T17:53:33.393Z,3.60
2022-08-15T17:54:22.514Z,3.80
2022-08-15T17:54:52.571Z,3.50
2022-08-15T17:55:27.348Z,3.40
2022-08-15T17:56:07.057Z,3.80
2022-08-15T17:56:44.509Z,3.70
2022-08-15T17:57:19.491Z,3.80
2022-08-15T17:58:01.273Z,4.00
2022-08-15T17:58:37.175Z,3.70
2022-08-15T17:59:12.101Z,3.70
2022-08-15T17:59:53.663Z,3.60
2022-08-15T18:00:32.511Z,3.50
2022-08-15T18:01:09.460Z,3.90
2022-08-15T18:01:55.938Z,2.90
2022-08-15T18:02:31.706Z,3.50
2022-08-15T18:03:06.356Z,4.10
2022-08-15T18:03:42.776Z,4.00
2022-08-15T18:04:19.784Z,4.10
2022-08-15T18:05:01.861Z,3.40
2022-08-15T18:05:35.366Z,3.20
2022-08-15T18:06:11.619Z,3.50
2022-08-15T18:06:46.484Z,3.80
2022-08-15T18:07:24.431Z,4.10
2022-08-15T18:08:02.026Z,3.80
2022-08-15T18:08:54.209Z,3.80
2022-08-15T18:10:30.678Z,3.40
2022-08-15T18:10:32.550Z,3.80
2022-08-15T18:10:44.941Z,3.60
2022-08-15T18:11:27.280Z,3.30
2022-08-15T18:12:02.462Z,3.90
2022-08-15T18:12:41.177Z,3.60
2022-08-15T18:13:16.882Z,3.80
2022-08-15T18:13:58.592Z,3.80
2022-08-15T18:14:39.983Z,3.80
2022-08-15T18:15:10.888Z,3.70
2022-08-15T18:15:45.737Z,3.90
2022-08-15T18:16:25.822Z,3.70
2022-08-15T18:17:01.009Z,3.80
2022-08-15T18:17:36.820Z,3.50
2022-08-15T18:18:21.372Z,3.90
2022-08-15T18:18:57.948Z,3.80
2022-08-15T18:19:30.810Z,3.70
2022-08-15T18:20:26.565Z,3.50
2022-08-15T18:20:50.293Z,3.50
2022-08-15T18:21:25.043Z,3.50
2022-08-15T18:22:07.986Z,3.60
2022-08-15T18:22:39.412Z,3.80
2022-08-15T18:23:20.581Z,4.00
2022-08-15T18:23:55.492Z,4.20
2022-08-15T18:24:41.347Z,4.10
2022-08-15T18:25:09.881Z,3.70
2022-08-15T18:25:50.147Z,3.80
2022-08-15T18:26:52.515Z,3.70
2022-08-15T18:27:05.432Z,3.80
2022-08-15T18:27:56.219Z,3.60
2022-08-15T18:28:20.042Z,3.60
2022-08-15T18:28:54.793Z,3.60
2022-08-15T18:29:29.534Z,3.50
2022-08-15T18:30:05.877Z,3.90
2022-08-15T18:30:44.847Z,4.00
2022-08-15T18:31:19.591Z,3.30
2022-08-15T18:31:54.603Z,4.10
2022-08-15T18:32:30.665Z,3.90
2022-08-15T18:33:05.728Z,3.90
2022-08-15T18:34:05.486Z,3.90
2022-08-15T18:34:50.736Z,3.50
2022-08-15T18:35:03.217Z,3.50
2022-08-15T18:35:38.638Z,3.80